Time;durP1;ratioP1;P1;durP2;ratioP2;P2;SDS_P1;SDS_P2;PMS_P1;PMS_P2;Temp;Humidity;BMP_temperature;BMP_pressure;BME280_temperature;BME280_humidity;BME280_pressure;Samples;Min_cycle;Max_cycle;Signal;HPM_P1;HPM_P2
2022/11/30 00:01:37;;;;;;;44.40;25.77;;;;;;;5.98;100.00;102296.13;5005716;28;20060;-81
2022/11/30 00:04:07;;;;;;;43.92;26.55;;;;;;;5.98;100.00;102296.13;5029754;28;20045;-80
2022/11/30 00:06:40;;;;;;;41.95;25.63;;;;;;;5.96;100.00;102292.56;5022283;28;20045;-78
2022/11/30 00:09:08;;;;;;;41.25;24.10;;;;;;;5.94;100.00;102294.16;5007685;28;20056;-78
2022/11/30 00:11:36;;;;;;;43.53;26.38;;;;;;;5.93;100.00;102288.84;4963230;28;20044;-78
2022/11/30 00:14:05;;;;;;;42.22;24.52;;;;;;;5.91;100.00;102298.38;4971557;28;20049;-78
2022/11/30 00:16:33;;;;;;;44.53;25.80;;;;;;;5.90;100.00;102291.31;5009968;28;20054;-79
2022/11/30 00:19:02;;;;;;;42.80;24.33;;;;;;;5.89;100.00;102300.03;5010333;28;20045;-79
2022/11/30 00:21:30;;;;;;;45.50;25.35;;;;;;;5.89;100.00;102300.03;5025358;28;20518;-79
2022/11/30 00:23:59;;;;;;;42.50;24.98;;;;;;;5.88;100.00;102298.22;5024539;28;20053;-78
2022/11/30 00:26:28;;;;;;;42.75;24.20;;;;;;;5.87;100.00;102307.78;4982034;28;20138;-78
2022/11/30 00:28:56;;;;;;;42.55;25.35;;;;;;;5.87;100.00;102302.56;5025598;28;20050;-79
2022/11/30 00:31:25;;;;;;;39.92;24.20;;;;;;;5.86;100.00;102312.13;5020903;28;20057;-78
2022/11/30 00:33:53;;;;;;;43.95;24.60;;;;;;;5.86;100.00;102296.44;5020057;28;20050;-79
2022/11/30 00:36:22;;;;;;;42.42;24.77;;;;;;;5.86;100.00;102299.06;5024840;28;20031;-78
2022/11/30 00:38:51;;;;;;;45.00;23.67;;;;;;;5.88;100.00;102298.22;5010571;28;20057;-79
2022/11/30 00:41:20;;;;;;;40.67;24.42;;;;;;;5.89;100.00;102300.91;5004037;28;20052;-79
2022/11/30 00:43:50;;;;;;;42.63;24.45;;;;;;;5.90;100.00;102293.94;4987530;28;20050;-78
2022/11/30 00:46:19;;;;;;;41.35;23.60;;;;;;;5.88;100.00;102299.13;5033212;28;20045;-78
2022/11/30 00:48:47;;;;;;;44.10;24.55;;;;;;;5.88;100.00;102306.97;4993900;28;20052;-79
2022/11/30 00:51:17;;;;;;;42.88;24.23;;;;;;;5.85;100.00;102305.09;5028006;28;20045;-79
2022/11/30 00:53:48;;;;;;;44.67;23.45;;;;;;;5.83;100.00;102306.75;5029285;28;20057;-79
2022/11/30 00:56:17;;;;;;;48.28;25.45;;;;;;;5.79;100.00;102310.06;4960996;28;20055;-79
2022/11/30 00:58:45;;;;;;;48.17;25.85;;;;;;;5.77;100.00;102303.88;4926955;28;20055;-78
2022/11/30 01:01:13;;;;;;;44.28;25.42;;;;;;;5.77;100.00;102309.09;4960357;28;20408;-78
2022/11/30 01:03:42;;;;;;;40.58;22.83;;;;;;;5.76;100.00;102304.66;4950018;28;20059;-78
2022/11/30 01:06:10;;;;;;;47.38;25.65;;;;;;;5.77;100.00;102301.25;4970769;28;20047;-78
2022/11/30 01:08:39;;;;;;;51.00;26.92;;;;;;;5.75;100.00;102308.13;4949433;28;20062;-78
2022/11/30 01:11:30;;;;;;;49.78;26.95;;;;;;;5.75;100.00;102305.50;4970351;28;20508;-78
2022/11/30 01:13:59;;;;;;;48.10;24.63;;;;;;;5.75;100.00;102307.25;4942613;28;20057;-79
2022/11/30 01:16:31;;;;;;;47.75;24.42;;;;;;;5.74;100.00;102314.19;4943208;28;20109;-79
2022/11/30 01:18:59;;;;;;;50.60;25.85;;;;;;;5.74;100.00;102303.72;4970763;28;20593;-79
2022/11/30 01:21:28;;;;;;;45.78;25.75;;;;;;;5.73;100.00;102309.78;4968156;28;20054;-79
2022/11/30 01:23:57;;;;;;;44.55;25.08;;;;;;;5.72;100.00;102317.56;4970490;28;20070;-78
2022/11/30 01:26:25;;;;;;;43.42;22.77;;;;;;;5.70;100.00;102322.72;4967724;28;20106;-78
2022/11/30 01:28:55;;;;;;;44.03;23.50;;;;;;;5.70;100.00;102320.09;4979808;28;20062;-78
2022/11/30 01:31:23;;;;;;;41.83;23.25;;;;;;;5.71;100.00;102321.91;5004115;28;20054;-79
2022/11/30 01:33:54;;;;;;;43.80;24.42;;;;;;;5.69;100.00;102323.56;5022261;28;20049;-78
2022/11/30 01:36:26;;;;;;;;;;;;;;;5.69;100.00;102318.31;5009688;28;20046;-78
2022/11/30 01:38:58;;;;;;;46.50;24.60;;;;;;;5.71;100.00;102319.28;5024125;28;19929;-78
2022/11/30 01:41:31;;;;;;;44.85;24.15;;;;;;;5.72;100.00;102323.66;4990614;28;20058;-79
2022/11/30 01:44:05;;;;;;;46.28;25.27;;;;;;;5.72;100.00;102322.78;4970423;28;20034;-78
2022/11/30 01:47:06;;;;;;;47.97;24.45;;;;;;;5.74;100.00;102332.47;4988460;28;20038;-78
2022/11/30 01:49:47;;;;;;;50.75;25.52;;;;;;;5.73;100.00;102328.09;4975210;28;20048;-78
2022/11/30 01:52:18;;;;;;;;;;;;;;;5.73;100.00;102329.78;5025343;28;20041;-78
2022/11/30 01:54:54;;;;;;;44.95;24.30;;;;;;;5.72;100.00;102328.91;5000723;28;19925;-78
2022/11/30 01:57:34;;;;;;;53.30;27.85;;;;;;;5.72;100.00;102328.00;5011205;28;20053;-80
2022/11/30 02:00:06;;;;;;;52.85;25.30;;;;;;;5.73;100.00;102328.09;4934289;28;20034;-80
2022/11/30 02:02:54;;;;;;;48.72;25.50;;;;;;;5.73;100.00;102327.19;4997970;28;20050;-80
2022/11/30 02:05:24;;;;;;;49.85;27.10;;;;;;;5.74;100.00;102329.88;4996625;28;20046;-79
2022/11/30 02:07:53;;;;;;;53.63;26.52;;;;;;;5.73;100.00;102335.94;5007528;28;20402;-80
2022/11/30 02:10:27;;;;;;;52.05;25.27;;;;;;;5.74;100.00;102339.44;5002472;28;20062;-80
2022/11/30 02:13:12;;;;;;;54.53;25.52;;;;;;;5.75;100.00;102336.03;5003599;28;20064;-80
2022/11/30 02:16:05;;;;;;;52.85;26.42;;;;;;;5.73;100.00;102330.72;4973648;28;20073;-79
2022/11/30 02:18:53;;;;;;;51.92;27.27;;;;;;;5.73;100.00;102335.03;5006303;28;20046;-79
2022/11/30 02:21:28;;;;;;;47.08;24.88;;;;;;;5.71;100.00;102331.44;5002324;28;20054;-79
2022/11/30 02:24:35;;;;;;;46.28;24.50;;;;;;;5.72;100.00;102334.13;4992678;28;20396;-80
2022/11/30 02:27:12;;;;;;;55.45;26.75;;;;;;;5.74;100.00;102334.22;5006413;28;20034;-80
2022/11/30 02:29:46;;;;;;;48.00;24.45;;;;;;;5.73;100.00;102335.03;5007537;28;20056;-80
2022/11/30 02:32:21;;;;;;;47.33;25.50;;;;;;;5.73;100.00;102330.72;4996321;28;20045;-79
2022/11/30 02:34:51;;;;;;;46.28;25.42;;;;;;;5.73;100.00;102325.47;5027127;28;20061;-80
2022/11/30 02:37:21;;;;;;;53.65;24.63;;;;;;;5.74;100.00;102336.81;5019619;28;20049;-79
2022/11/30 02:39:50;;;;;;;47.70;23.65;;;;;;;5.73;100.00;102335.03;5026558;28;20054;-79
2022/11/30 02:42:18;;;;;;;49.70;24.80;;;;;;;5.73;100.00;102330.72;4994057;28;20053;-79
2022/11/30 02:44:50;;;;;;;46.63;22.25;;;;;;;5.72;100.00;102338.47;5027592;28;20053;-80
2022/11/30 02:47:25;;;;;;;47.47;23.10;;;;;;;5.71;100.00;102329.75;4992311;28;20045;-79
2022/11/30 02:50:21;;;;;;;50.08;24.65;;;;;;;5.70;100.00;102334.91;5027397;28;20054;-80
2022/11/30 02:52:51;;;;;;;45.95;24.17;;;;;;;5.68;100.00;102332.19;5003785;28;20064;-81
2022/11/30 02:55:19;;;;;;;48.03;24.70;;;;;;;5.69;100.00;102343.56;5007978;28;20046;-79
2022/11/30 02:57:47;;;;;;;45.10;22.80;;;;;;;5.70;100.00;102334.91;5008578;28;20065;-79
2022/11/30 03:00:16;;;;;;;45.35;24.55;;;;;;;5.69;100.00;102340.94;4988825;28;20421;-79
2022/11/30 03:02:45;;;;;;;50.95;24.27;;;;;;;5.67;100.00;102330.41;5013008;28;20888;-79
2022/11/30 03:05:14;;;;;;;48.00;24.88;;;;;;;5.68;100.00;102341.78;5013542;28;20056;-79
2022/11/30 03:07:42;;;;;;;49.45;24.98;;;;;;;5.67;100.00;102343.47;4997638;28;20045;-79
2022/11/30 03:10:11;;;;;;;54.03;24.70;;;;;;;5.66;100.00;102333.84;5010715;28;20045;-79
2022/11/30 03:12:39;;;;;;;45.35;23.80;;;;;;;5.66;100.00;102334.75;5008558;28;20041;-80
2022/11/30 03:15:09;;;;;;;52.22;26.85;;;;;;;5.66;100.00;102339.09;5011321;28;20041;-79
2022/11/30 03:17:37;;;;;;;49.30;24.13;;;;;;;5.65;100.00;102332.97;5024910;28;20557;-80
2022/11/30 03:20:07;;;;;;;58.63;25.85;;;;;;;5.64;100.00;102330.28;4987580;28;20042;-79
2022/11/30 03:22:35;;;;;;;56.05;26.83;;;;;;;5.65;100.00;102332.06;5029814;28;20029;-79
2022/11/30 03:25:04;;;;;;;51.47;25.75;;;;;;;5.66;100.00;102328.63;5031093;28;20033;-79
2022/11/30 03:27:32;;;;;;;56.67;28.40;;;;;;;5.65;100.00;102337.28;5011747;28;20048;-79
2022/11/30 03:30:02;;;;;;;60.80;27.77;;;;;;;5.63;100.00;102337.22;4999121;28;20045;-79
2022/11/30 03:32:30;;;;;;;54.65;25.77;;;;;;;5.65;100.00;102337.28;5003893;28;20045;-80
2022/11/30 03:34:58;;;;;;;58.17;25.95;;;;;;;5.64;100.00;102335.50;4973949;28;20050;-79
2022/11/30 03:37:27;;;;;;;50.53;24.85;;;;;;;5.61;100.00;102341.50;5015080;28;20471;-80
2022/11/30 03:39:55;;;;;;;51.92;26.42;;;;;;;5.60;100.00;102352.78;5015145;28;20048;-79
2022/11/30 03:42:25;;;;;;;55.67;26.77;;;;;;;5.60;100.00;102346.66;5013009;28;20041;-80
2022/11/30 03:44:54;;;;;;;51.35;25.15;;;;;;;5.59;100.00;102352.69;5046827;28;20049;-80
2022/11/30 03:47:23;;;;;;;53.65;26.98;;;;;;;5.58;100.00;102346.56;5017526;28;20057;-80
2022/11/30 03:49:52;;;;;;;53.90;26.30;;;;;;;5.58;100.00;102351.81;5011960;28;20045;-80
2022/11/30 03:52:21;;;;;;;46.30;24.48;;;;;;;5.60;100.00;102351.88;4994363;28;20491;-80
2022/11/30 03:54:50;;;;;;;48.80;24.05;;;;;;;5.59;100.00;102353.56;5026546;28;20513;-80
2022/11/30 03:57:18;;;;;;;47.17;24.35;;;;;;;5.60;100.00;102359.72;5000164;28;20030;-79
2022/11/30 03:59:47;;;;;;;48.72;23.52;;;;;;;5.58;100.00;102351.81;5033770;28;20045;-80
2022/11/30 04:02:16;;;;;;;48.30;24.10;;;;;;;5.51;100.00;102367.13;5017215;28;20038;-79
2022/11/30 04:04:44;;;;;;;53.20;23.55;;;;;;;5.44;100.00;102363.31;5005246;28;20045;-80
2022/11/30 04:07:13;;;;;;;51.83;24.63;;;;;;;5.41;100.00;102363.19;4997028;28;20129;-80
2022/11/30 04:09:41;;;;;;;49.28;24.38;;;;;;;5.38;100.00;102376.97;5022471;28;20057;-80
2022/11/30 04:12:10;;;;;;;52.95;24.50;;;;;;;5.37;100.00;102372.59;5023010;28;20041;-80
2022/11/30 04:14:39;;;;;;;56.45;25.23;;;;;;;5.34;100.00;102376.75;5015924;28;20561;-80
2022/11/30 04:17:08;;;;;;;57.15;25.30;;;;;;;5.32;100.00;102376.69;5033928;28;20037;-79
2022/11/30 04:19:36;;;;;;;53.45;24.73;;;;;;;5.30;100.00;102386.16;5031725;28;20056;-79
2022/11/30 04:22:05;;;;;;;57.75;26.25;;;;;;;5.31;100.00;102376.59;5006761;28;20053;-79
2022/11/30 04:24:34;;;;;;;73.43;28.40;;;;;;;5.30;100.00;102383.56;5019626;28;20561;-80
2022/11/30 04:27:02;;;;;;;66.93;28.67;;;;;;;5.29;100.00;102389.59;5017539;28;20510;-80
2022/11/30 04:29:31;;;;;;;70.22;27.63;;;;;;;5.26;100.00;102390.34;5013872;28;20390;-79
2022/11/30 04:31:59;;;;;;;66.28;28.73;;;;;;;5.24;100.00;102391.09;4994866;28;20057;-79
2022/11/30 04:34:28;;;;;;;58.88;24.85;;;;;;;5.22;100.00;102385.78;5038802;28;20053;-79
2022/11/30 04:36:56;;;;;;;68.18;26.48;;;;;;;5.21;100.00;102393.56;5004073;28;20050;-80
2022/11/30 04:39:27;;;;;;;62.55;27.15;;;;;;;5.19;100.00;102388.25;5026311;28;20037;-80
2022/11/30 04:41:56;;;;;;;65.90;26.67;;;;;;;5.21;100.00;102388.31;4990751;28;20050;-80
2022/11/30 04:44:24;;;;;;;66.53;27.65;;;;;;;5.21;100.00;102401.38;5002029;28;20058;-80
2022/11/30 04:46:53;;;;;;;65.45;27.50;;;;;;;5.22;100.00;102397.97;4981757;28;20467;-79
2022/11/30 04:49:21;;;;;;;57.90;26.23;;;;;;;5.22;100.00;102388.41;4958104;28;20050;-78
2022/11/30 04:51:50;;;;;;;61.17;26.88;;;;;;;5.24;100.00;102391.09;4975927;28;20050;-78
2022/11/30 04:54:18;;;;;;;63.25;27.67;;;;;;;5.24;100.00;102389.38;4988755;28;20665;-78
2022/11/30 04:56:46;;;;;;;58.08;25.35;;;;;;;5.24;100.00;102391.09;4964641;28;20058;-79
2022/11/30 04:59:15;;;;;;;55.97;24.45;;;;;;;5.23;100.00;102405.88;4973798;28;20038;-79
2022/11/30 05:01:44;;;;;;;54.45;24.00;;;;;;;5.24;100.00;102402.44;4971204;28;20507;-79
2022/11/30 05:04:12;;;;;;;48.88;24.55;;;;;;;5.24;100.00;102402.44;4998750;28;20058;-78
2022/11/30 05:06:40;;;;;;;50.30;22.10;;;;;;;5.24;100.00;102399.84;4989781;28;20058;-79
2022/11/30 05:09:09;;;;;;;46.75;23.35;;;;;;;5.26;100.00;102405.13;4946275;28;20046;-78
2022/11/30 05:11:38;;;;;;;43.45;20.40;;;;;;;5.28;100.00;102398.25;4986372;28;20066;-78
2022/11/30 05:14:06;;;;;;;45.22;21.08;;;;;;;5.29;100.00;102402.66;4991556;28;20514;-79
2022/11/30 05:16:34;;;;;;;36.30;19.40;;;;;;;5.30;100.00;102409.69;5033111;28;20053;-79
2022/11/30 05:19:03;;;;;;;33.47;18.08;;;;;;;5.29;100.00;102420.97;5012662;28;20046;-78
2022/11/30 05:21:31;;;;;;;35.03;18.88;;;;;;;5.31;100.00;102407.97;5014290;28;20045;-79
2022/11/30 05:24:01;;;;;;;32.83;18.63;;;;;;;5.32;100.00;102417.63;4960855;28;20479;-79
2022/11/30 05:26:29;;;;;;;26.70;16.10;;;;;;;5.28;100.00;102416.56;5006608;28;20053;-79
2022/11/30 05:28:58;;;;;;;27.90;16.70;;;;;;;5.25;100.00;102419.00;4984962;28;20037;-80
2022/11/30 05:31:26;;;;;;;24.85;14.93;;;;;;;5.22;100.00;102419.78;5032193;28;20049;-78
2022/11/30 05:33:56;;;;;;;22.98;14.70;;;;;;;5.22;100.00;102416.25;5018976;28;20041;-78
2022/11/30 05:36:24;;;;;;;22.23;14.57;;;;;;;5.21;100.00;102417.06;5031153;28;20044;-78
2022/11/30 05:38:52;;;;;;;23.50;14.88;;;;;;;5.20;100.00;102421.41;4986094;28;20048;-78
2022/11/30 05:41:21;;;;;;;20.30;14.32;;;;;;;5.19;100.00;102416.09;5013592;28;20050;-78
2022/11/30 05:43:49;;;;;;;20.10;13.55;;;;;;;5.18;100.00;102432.59;5042773;28;20045;-78
2022/11/30 05:46:18;;;;;;;20.92;14.23;;;;;;;5.15;100.00;102422.88;5014724;28;20050;-78
2022/11/30 05:48:46;;;;;;;19.92;13.63;;;;;;;5.13;100.00;102421.91;5016655;28;20042;-78
2022/11/30 05:51:18;;;;;;;23.42;14.30;;;;;;;5.12;100.00;102424.44;5013484;28;20045;-80
2022/11/30 05:53:54;;;;;;;26.27;13.90;;;;;;;5.15;100.00;102430.72;5013896;28;20053;-78
2022/11/30 05:56:23;;;;;;;19.50;13.93;;;;;;;5.17;100.00;102422.97;5000686;28;20060;-78
2022/11/30 05:58:52;;;;;;;19.63;13.10;;;;;;;5.18;100.00;102428.28;5026419;28;20514;-78
2022/11/30 06:01:25;;;;;;;20.55;13.80;;;;;;;5.19;100.00;102435.28;5027866;28;20050;-78
2022/11/30 06:03:54;;;;;;;18.13;13.23;;;;;;;5.23;100.00;102433.72;5032678;28;20049;-78
2022/11/30 06:06:23;;;;;;;18.00;13.38;;;;;;;5.25;100.00;102434.69;5026583;28;20565;-79
2022/11/30 06:08:53;;;;;;;19.05;12.73;;;;;;;5.25;100.00;102435.63;5033414;28;20061;-78
2022/11/30 06:11:21;;;;;;;16.58;12.38;;;;;;;5.25;100.00;102435.63;4980291;28;20052;-78
2022/11/30 06:13:51;;;;;;;21.15;14.18;;;;;;;5.26;100.00;102431.28;4992181;28;20037;-78
2022/11/30 06:16:20;;;;;;;19.90;13.55;;;;;;;5.27;100.00;102444.44;5012776;28;20461;-78
2022/11/30 06:18:49;;;;;;;21.05;15.65;;;;;;;5.29;100.00;102439.25;4999182;28;20076;-78
2022/11/30 06:21:17;;;;;;;21.67;16.30;;;;;;;5.28;100.00;102445.31;4992659;28;20573;-78
2022/11/30 06:23:51;;;;;;;23.27;14.88;;;;;;;5.27;100.00;102439.19;4981898;28;20495;-78
2022/11/30 06:26:21;;;;;;;22.40;15.30;;;;;;;5.26;100.00;102450.47;4968242;28;20056;-78
2022/11/30 06:28:49;;;;;;;24.83;16.15;;;;;;;5.24;100.00;102440.75;5029971;28;20041;-78
2022/11/30 06:31:18;;;;;;;26.83;16.92;;;;;;;5.24;100.00;102444.25;5020252;28;20046;-80
2022/11/30 06:33:46;;;;;;;30.95;16.65;;;;;;;5.19;100.00;102450.97;5046387;28;20504;-80
2022/11/30 06:36:21;;;;;;;30.00;17.65;;;;;;;5.14;100.00;102446.31;5013276;28;20394;-78
2022/11/30 06:38:50;;;;;;;31.30;17.25;;;;;;;5.08;100.00;102447.81;4997687;28;20064;-78
2022/11/30 06:41:20;;;;;;;30.38;18.27;;;;;;;5.09;100.00;102451.31;4985551;28;20052;-79
2022/11/30 06:43:48;;;;;;;32.70;17.50;;;;;;;5.08;100.00;102450.44;5011015;28;20600;-80
2022/11/30 06:46:18;;;;;;;29.73;17.08;;;;;;;5.05;100.00;102452.88;5015836;28;20037;-78
2022/11/30 06:48:49;;;;;;;30.50;18.80;;;;;;;5.07;100.00;102455.59;4992816;28;20053;-79
2022/11/30 06:51:18;;;;;;;26.70;16.13;;;;;;;5.08;100.00;102452.13;4998227;28;20505;-78
2022/11/30 06:53:47;;;;;;;27.27;17.67;;;;;;;5.10;100.00;102452.22;5005386;28;20046;-78
2022/11/30 06:56:16;;;;;;;28.63;17.30;;;;;;;5.13;100.00;102465.44;5023067;28;20030;-78
2022/11/30 06:58:44;;;;;;;31.85;18.75;;;;;;;5.16;100.00;102458.66;4993939;28;20398;-78
2022/11/30 07:01:14;;;;;;;29.88;17.88;;;;;;;5.16;100.00;102466.50;4965862;28;20805;-81
2022/11/30 07:03:42;;;;;;;29.08;17.40;;;;;;;5.17;100.00;102465.66;5021216;28;20387;-83
2022/11/30 07:06:13;;;;;;;30.88;18.67;;;;;;;5.17;100.00;102468.28;4985138;28;20037;-80
2022/11/30 07:08:42;;;;;;;32.67;19.30;;;;;;;5.17;100.00;102475.25;5013972;28;20060;-80
2022/11/30 07:11:12;;;;;;;31.77;18.38;;;;;;;5.16;100.00;102470.81;5022398;28;20025;-80
2022/11/30 07:13:40;;;;;;;38.97;18.85;;;;;;;5.15;100.00;102477.78;4982512;28;20521;-80
2022/11/30 07:16:10;;;;;;;31.95;17.33;;;;;;;5.16;100.00;102482.19;5001735;28;20718;-80
2022/11/30 07:18:39;;;;;;;29.08;17.90;;;;;;;5.18;100.00;102482.25;5017628;28;20045;-80
2022/11/30 07:21:09;;;;;;;33.78;19.02;;;;;;;5.19;100.00;102484.06;4998644;28;20727;-79
2022/11/30 07:26:31;;;;;;;40.33;19.92;;;;;;;5.24;100.00;102490.41;5007513;28;20053;-78
2022/11/30 07:29:04;;;;;;;35.13;19.10;;;;;;;5.26;100.00;102488.78;4993331;28;20058;-80
2022/11/30 07:31:34;;;;;;;32.65;20.10;;;;;;;5.26;100.00;102491.41;4995265;28;20057;-82
2022/11/30 07:34:08;;;;;;;37.33;20.23;;;;;;;5.28;100.00;102498.47;4988223;28;20050;-80
2022/11/30 07:36:36;;;;;;;33.55;19.25;;;;;;;5.25;100.00;102503.56;4995526;28;20046;-80
2022/11/30 07:39:05;;;;;;;34.20;19.42;;;;;;;5.24;100.00;102500.88;5003642;28;20049;-80
2022/11/30 07:41:34;;;;;;;38.58;20.95;;;;;;;5.23;100.00;102504.28;4958237;28;20508;-79
2022/11/30 07:44:04;;;;;;;38.05;21.77;;;;;;;5.21;100.00;102501.59;4975267;28;20045;-81
2022/11/30 07:46:35;;;;;;;40.70;21.60;;;;;;;5.21;100.00;102506.81;4990590;28;20045;-80
2022/11/30 07:49:04;;;;;;;;;;;;;;;5.21;100.00;102511.16;4976923;28;20042;-79
2022/11/30 07:51:34;;;;;;;39.78;21.08;;;;;;;5.21;100.00;102514.66;5021518;28;19921;-81
2022/11/30 07:54:03;;;;;;;40.20;21.15;;;;;;;5.20;100.00;102506.78;4989845;28;20042;-79
2022/11/30 07:56:31;;;;;;;37.65;21.63;;;;;;;5.23;100.00;102517.38;4997185;28;20057;-79
2022/11/30 07:59:00;;;;;;;41.25;21.55;;;;;;;5.23;100.00;102518.25;4960155;28;20068;-80
2022/11/30 08:01:31;;;;;;;37.58;21.65;;;;;;;5.25;100.00;102518.34;4995983;28;20146;-80
2022/11/30 08:03:59;;;;;;;37.65;21.83;;;;;;;5.27;100.00;102521.94;4994992;28;20057;-80
2022/11/30 08:06:30;;;;;;;41.95;21.05;;;;;;;5.28;100.00;102529.84;4946166;28;20126;-80
2022/11/30 08:09:03;;;;;;;37.90;21.45;;;;;;;5.27;100.00;102521.94;5005245;28;20040;-80
2022/11/30 08:11:34;;;;;;;35.10;20.67;;;;;;;5.26;100.00;102526.25;5006430;28;20042;-81
2022/11/30 08:14:03;;;;;;;35.45;21.08;;;;;;;5.27;100.00;102546.38;5011164;28;20046;-79
2022/11/30 08:16:36;;;;;;;34.88;20.30;;;;;;;5.29;100.00;102546.41;4982590;28;20403;-80
2022/11/30 08:19:05;;;;;;;37.67;20.25;;;;;;;5.30;100.00;102542.13;4997069;28;20048;-80
2022/11/30 08:21:33;;;;;;;34.28;20.27;;;;;;;5.30;100.00;102543.00;5007730;28;20038;-80
2022/11/30 08:24:02;;;;;;;34.65;20.42;;;;;;;5.30;100.00;102547.34;5013713;28;20053;-80
2022/11/30 08:26:34;;;;;;;34.38;20.25;;;;;;;5.34;100.00;102550.19;4991034;28;20049;-80
2022/11/30 08:29:02;;;;;;;34.83;20.75;;;;;;;5.35;100.00;102541.53;5007558;28;20054;-79
2022/11/30 08:31:34;;;;;;;32.40;20.67;;;;;;;5.36;100.00;102553.78;4974680;28;20117;-80
2022/11/30 08:34:05;;;;;;;35.08;19.35;;;;;;;5.37;100.00;102559.88;5007962;28;20507;-79
2022/11/30 08:36:34;;;;;;;34.08;19.88;;;;;;;5.37;100.00;102562.50;5005746;28;20042;-79
2022/11/30 08:39:04;;;;;;;37.13;20.77;;;;;;;5.38;100.00;102561.69;4988251;28;20049;-79
2022/11/30 08:41:34;;;;;;;32.72;19.42;;;;;;;5.40;100.00;102557.44;5019013;28;20046;-79
2022/11/30 08:44:02;;;;;;;33.90;19.33;;;;;;;5.39;100.00;102556.56;5009201;28;20049;-79
2022/11/30 08:46:31;;;;;;;29.25;19.70;;;;;;;5.42;100.00;102568.88;5015405;28;20288;-80
2022/11/30 08:49:20;;;;;;;35.08;20.05;;;;;;;5.45;100.00;102562.09;5004567;28;21226;-79
2022/11/30 08:51:54;;;;;;;31.73;19.02;;;;;;;5.48;100.00;102569.19;4988937;28;20057;-79
2022/11/30 08:54:46;;;;;;;35.72;19.95;;;;;;;5.47;100.00;102568.28;5017937;28;20041;-80
2022/11/30 08:57:18;;;;;;;33.03;19.67;;;;;;;5.50;100.00;102570.19;4958646;28;20673;-79
2022/11/30 08:59:48;;;;;;;32.30;19.38;;;;;;;5.49;100.00;102575.34;5016058;28;20046;-79
2022/11/30 09:02:18;;;;;;;38.37;22.57;;;;;;;5.45;100.00;102580.41;4960337;28;20427;-79
2022/11/30 09:04:47;;;;;;;38.08;21.75;;;;;;;5.46;100.00;102579.59;4983265;28;20054;-80
2022/11/30 09:07:36;;;;;;;37.45;21.58;;;;;;;5.46;100.00;102587.44;4971188;28;20050;-79
2022/11/30 09:10:05;;;;;;;39.60;21.73;;;;;;;5.48;100.00;102587.50;5004080;28;20053;-79
2022/11/30 09:12:36;;;;;;;37.78;22.88;;;;;;;5.50;100.00;102580.66;5005346;28;20042;-80
2022/11/30 09:15:06;;;;;;;41.85;22.15;;;;;;;5.50;100.00;102585.88;5031446;28;20397;-80
2022/11/30 09:17:35;;;;;;;40.90;22.92;;;;;;;5.50;100.00;102584.97;4990328;28;20056;-79
2022/11/30 09:20:06;;;;;;;42.67;24.40;;;;;;;5.51;100.00;102586.78;4987759;28;20045;-80
2022/11/30 09:22:34;;;;;;;40.55;22.67;;;;;;;5.54;100.00;102581.69;4970404;28;20038;-79
2022/11/30 09:25:03;;;;;;;43.90;22.60;;;;;;;5.55;100.00;102586.09;5008483;28;20038;-79
2022/11/30 09:27:32;;;;;;;38.22;21.85;;;;;;;5.56;100.00;102590.53;4985848;28;20045;-79
2022/11/30 09:30:03;;;;;;;41.67;22.60;;;;;;;5.54;100.00;102587.84;5033244;28;20042;-80
2022/11/30 09:32:35;;;;;;;35.47;21.90;;;;;;;5.55;100.00;102593.94;5016949;28;20863;-80
2022/11/30 09:35:03;;;;;;;35.85;22.15;;;;;;;5.56;100.00;102593.16;4987000;28;20058;-80
2022/11/30 09:37:39;;;;;;;36.55;21.35;;;;;;;5.58;100.00;102587.16;5005686;28;20053;-80
2022/11/30 09:40:08;;;;;;;35.10;21.92;;;;;;;5.61;100.00;102595.19;4995259;28;20052;-79
2022/11/30 09:43:04;;;;;;;38.10;22.63;;;;;;;5.64;100.00;102583.97;5021427;28;20038;-84
2022/11/30 09:45:35;;;;;;;43.20;23.83;;;;;;;5.66;100.00;102587.56;5030513;28;20042;-80
2022/11/30 09:48:22;;;;;;;42.20;22.38;;;;;;;5.65;100.00;102590.97;5029069;28;20049;-80
2022/11/30 09:50:53;;;;;;;40.67;23.35;;;;;;;5.65;100.00;102591.91;5008896;28;20060;-80
2022/11/30 09:53:44;;;;;;;44.38;23.58;;;;;;;5.69;100.00;102587.72;5016524;28;20037;-79
2022/11/30 09:56:25;;;;;;;40.58;23.08;;;;;;;5.69;100.00;102592.97;4995626;28;20497;-80
2022/11/30 09:59:14;;;;;;;;;;;;;;;5.71;100.00;102587.78;5031066;28;20053;-79
2022/11/30 10:01:44;;;;;;;38.67;22.00;;;;;;;5.72;100.00;102587.84;5024494;28;19925;-80
2022/11/30 10:04:26;;;;;;;43.08;22.60;;;;;;;5.75;100.00;102584.53;5012537;28;20044;-80
2022/11/30 10:07:35;;;;;;;43.22;22.05;;;;;;;5.74;100.00;102590.56;4991391;28;20356;-80
2022/11/30 10:10:28;;;;;;;42.05;23.50;;;;;;;5.76;100.00;102586.31;4994890;28;20054;-81
2022/11/30 10:13:22;;;;;;;45.65;25.52;;;;;;;5.75;100.00;102584.53;4987274;28;20053;-80
2022/11/30 10:16:03;;;;;;;48.88;24.88;;;;;;;5.76;100.00;102579.34;4990853;28;20064;-81
2022/11/30 10:19:19;;;;;;;43.05;24.95;;;;;;;5.76;100.00;102587.19;4999119;28;20046;-79
2022/11/30 10:22:06;;;;;;;51.28;26.70;;;;;;;5.77;100.00;102589.00;4917860;28;20058;-80
2022/11/30 10:25:13;;;;;;;48.58;27.35;;;;;;;5.78;100.00;102589.88;4969201;28;20074;-81
2022/11/30 10:28:07;;;;;;;52.05;25.98;;;;;;;5.80;100.00;102585.63;4963127;28;20893;-79
2022/11/30 10:30:58;;;;;;;49.88;27.58;;;;;;;5.77;100.00;102589.00;5002675;28;20085;-79
2022/11/30 10:33:37;;;;;;;61.45;31.33;;;;;;;5.78;100.00;102590.78;4963187;28;20047;-79
2022/11/30 10:36:12;;;;;;;60.35;29.85;;;;;;;5.78;100.00;102585.53;4968183;28;20056;-78
2022/11/30 10:39:00;;;;;;;53.72;29.00;;;;;;;5.77;100.00;102589.00;4955867;28;20058;-78
2022/11/30 10:41:51;;;;;;;55.42;29.75;;;;;;;5.79;100.00;102591.69;4992519;28;20050;-80
2022/11/30 10:44:38;;;;;;;55.05;29.13;;;;;;;5.82;100.00;102584.00;5002950;28;20052;-81
2022/11/30 10:47:20;;;;;;;52.20;28.83;;;;;;;5.78;100.00;102589.88;4997705;28;20053;-79
2022/11/30 10:49:53;;;;;;;49.35;27.58;;;;;;;5.74;100.00;102595.78;5023134;28;20048;-78
2022/11/30 10:52:27;;;;;;;52.22;26.70;;;;;;;5.73;100.00;102592.28;4997748;28;20050;-78
2022/11/30 10:54:57;;;;;;;49.70;28.20;;;;;;;5.75;100.00;102598.50;4950320;28;20053;-79
2022/11/30 10:57:32;;;;;;;45.15;25.90;;;;;;;5.76;100.00;102595.03;4994777;28;20038;-80
2022/11/30 11:00:04;;;;;;;48.72;27.65;;;;;;;5.75;100.00;102593.25;5004995;28;20068;-79
2022/11/30 11:02:34;;;;;;;50.25;26.92;;;;;;;5.76;100.00;102605.50;4987063;28;20034;-79
2022/11/30 11:05:29;;;;;;;50.30;29.30;;;;;;;5.77;100.00;102598.56;5016720;28;20049;-79
2022/11/30 11:08:01;;;;;;;55.53;29.42;;;;;;;5.75;100.00;102595.88;4987672;28;20053;-79
2022/11/30 11:10:43;;;;;;;50.28;28.90;;;;;;;5.71;100.00;102596.53;4986071;28;20057;-79
2022/11/30 11:13:18;;;;;;;52.55;29.73;;;;;;;5.73;100.00;102593.97;4995143;28;20128;-79
2022/11/30 11:15:58;;;;;;;51.53;28.90;;;;;;;5.71;100.00;102599.16;5011122;28;20038;-79
2022/11/30 11:18:32;;;;;;;48.47;27.73;;;;;;;5.68;100.00;102591.16;4992948;28;20439;-79
2022/11/30 11:21:02;;;;;;;48.05;28.05;;;;;;;5.69;100.00;102602.50;4987143;28;20050;-79
2022/11/30 11:23:39;;;;;;;47.72;28.35;;;;;;;5.70;100.00;102597.34;4994275;28;20053;-78
2022/11/30 11:26:24;;;;;;;51.58;27.95;;;;;;;5.71;100.00;102603.47;4963478;28;20050;-78
2022/11/30 11:29:01;;;;;;;46.22;26.17;;;;;;;5.70;100.00;102602.59;4994319;28;20046;-78
2022/11/30 11:31:49;;;;;;;53.47;27.30;;;;;;;5.70;100.00;102602.59;5006845;28;20058;-79
2022/11/30 11:34:42;;;;;;;50.78;27.50;;;;;;;5.70;100.00;102602.59;4992713;28;20046;-78
2022/11/30 11:37:27;;;;;;;49.97;27.05;;;;;;;5.72;100.00;102605.28;4999386;28;20045;-80